createdAt,value
2018-09-22T00:02:19.832Z,16.30
2018-09-22T00:04:48.706Z,16.20
2018-09-22T00:07:17.246Z,16.10
2018-09-22T00:09:45.871Z,16.10
2018-09-22T00:12:15.032Z,16.10
2018-09-22T00:14:45.318Z,16.10
2018-09-22T00:17:13.843Z,16.10
2018-09-22T00:19:43.034Z,16.00
2018-09-22T00:22:11.535Z,16.00
2018-09-22T00:24:40.159Z,16.00
2018-09-22T00:27:08.729Z,16.00
2018-09-22T00:29:38.125Z,15.90
2018-09-22T00:32:06.667Z,15.90
2018-09-22T00:34:35.395Z,15.90
2018-09-22T00:37:06.694Z,15.90
2018-09-22T00:39:35.297Z,15.80
2018-09-22T00:42:03.884Z,15.80
2018-09-22T00:44:32.399Z,15.80
2018-09-22T00:47:00.958Z,15.70
2018-09-22T00:49:29.824Z,15.70
2018-09-22T00:51:58.453Z,15.70
2018-09-22T00:54:27.641Z,15.70
2018-09-22T00:56:56.205Z,15.70
2018-09-22T00:59:25.126Z,15.70
2018-09-22T01:01:53.744Z,15.60
2018-09-22T01:04:22.227Z,15.70
2018-09-22T01:06:52.865Z,15.60
2018-09-22T01:09:21.656Z,15.60
2018-09-22T01:11:50.247Z,15.60
2018-09-22T01:14:18.975Z,15.60
2018-09-22T01:16:47.611Z,15.60
2018-09-22T01:19:16.175Z,15.60
2018-09-22T01:21:45.250Z,15.60
2018-09-22T01:24:13.754Z,15.60
2018-09-22T01:26:42.317Z,15.50
2018-09-22T01:29:15.162Z,15.50
2018-09-22T01:31:45.830Z,15.60
2018-09-22T01:34:14.356Z,15.50
2018-09-22T01:36:43.453Z,15.50
2018-09-22T01:39:12.298Z,15.50
2018-09-22T01:41:41.714Z,15.50
2018-09-22T01:44:10.307Z,15.50
2018-09-22T01:46:38.812Z,15.50
2018-09-22T01:49:07.314Z,15.40
2018-09-22T01:51:36.266Z,15.40
2018-09-22T01:54:04.839Z,15.40
2018-09-22T01:56:33.326Z,15.40
2018-09-22T01:59:01.934Z,15.40
2018-09-22T02:01:30.443Z,15.40
2018-09-22T02:03:59.019Z,15.40
2018-09-22T02:06:27.638Z,15.40
2018-09-22T02:08:56.211Z,15.30
2018-09-22T02:11:24.701Z,15.30
2018-09-22T02:13:53.321Z,15.30
2018-09-22T02:16:21.879Z,15.30
2018-09-22T02:18:50.410Z,15.30
2018-09-22T02:21:19.443Z,15.30
2018-09-22T02:23:48.264Z,15.30
2018-09-22T02:26:16.819Z,15.20
2018-09-22T02:28:45.393Z,15.20
2018-09-22T02:31:13.892Z,15.20
2018-09-22T02:33:42.670Z,15.20
2018-09-22T02:36:11.222Z,15.10
2018-09-22T02:38:39.988Z,15.20
2018-09-22T02:41:08.792Z,15.10
2018-09-22T02:43:37.598Z,15.10
2018-09-22T02:46:06.712Z,15.10
2018-09-22T02:48:35.435Z,15.10
2018-09-22T02:51:04.208Z,15.10
2018-09-22T02:53:33.000Z,15.10
2018-09-22T02:56:01.526Z,15.10
2018-09-22T02:58:30.055Z,15.10
2018-09-22T03:00:59.308Z,15.10
2018-09-22T03:03:27.849Z,15.00
2018-09-22T03:05:56.747Z,15.00
2018-09-22T03:08:25.239Z,15.00
2018-09-22T03:10:53.840Z,14.90
2018-09-22T03:13:22.351Z,14.90
2018-09-22T03:15:50.898Z,14.90
2018-09-22T03:18:19.506Z,14.90
2018-09-22T03:20:48.079Z,14.90
2018-09-22T03:23:16.579Z,14.80
2018-09-22T03:25:45.150Z,14.80
2018-09-22T03:28:14.519Z,14.80
2018-09-22T03:30:43.053Z,14.90
2018-09-22T03:33:11.557Z,14.80
2018-09-22T03:35:40.081Z,14.80
2018-09-22T03:38:08.590Z,14.80
2018-09-22T03:40:37.626Z,14.80
2018-09-22T03:43:07.310Z,14.80
2018-09-22T03:45:36.419Z,14.80
2018-09-22T03:48:05.004Z,14.70
2018-09-22T03:50:33.546Z,14.70
2018-09-22T03:53:02.133Z,14.70
2018-09-22T03:55:30.750Z,14.70
2018-09-22T03:57:59.291Z,14.70
2018-09-22T04:00:27.813Z,14.70
2018-09-22T04:02:56.373Z,14.70
2018-09-22T04:05:25.409Z,14.70
2018-09-22T04:07:53.938Z,14.70
2018-09-22T04:10:22.434Z,14.60
2018-09-22T04:12:50.950Z,14.60
2018-09-22T04:15:19.460Z,14.60
2018-09-22T04:17:48.038Z,14.60
2018-09-22T04:20:16.695Z,14.60
2018-09-22T04:22:45.364Z,14.50
2018-09-22T04:25:13.873Z,14.60
2018-09-22T04:27:42.449Z,14.50
2018-09-22T04:30:10.963Z,14.50
2018-09-22T04:32:39.547Z,14.50
2018-09-22T04:35:08.089Z,14.50
2018-09-22T04:37:36.653Z,14.50
2018-09-22T04:40:06.004Z,14.50
2018-09-22T04:42:35.124Z,14.50
2018-09-22T04:45:03.631Z,14.50
2018-09-22T04:47:32.340Z,14.50
2018-09-22T04:50:00.883Z,14.40
2018-09-22T04:52:29.425Z,14.40
2018-09-22T04:54:58.072Z,14.40
2018-09-22T04:57:26.674Z,14.40
2018-09-22T04:59:55.236Z,14.40
2018-09-22T05:02:24.028Z,14.40
2018-09-22T05:04:53.157Z,14.40
2018-09-22T05:07:21.951Z,14.30
2018-09-22T05:09:52.806Z,14.40
2018-09-22T05:12:21.467Z,14.40
2018-09-22T05:14:50.054Z,14.40
2018-09-22T05:17:18.593Z,14.40
2018-09-22T05:19:47.152Z,14.40
2018-09-22T05:22:16.314Z,14.40
2018-09-22T05:24:44.980Z,14.40
2018-09-22T05:27:13.906Z,14.50
2018-09-22T05:29:43.498Z,14.60
2018-09-22T05:32:12.011Z,14.60
2018-09-22T05:34:40.565Z,14.70
2018-09-22T05:37:09.153Z,14.70
2018-09-22T05:39:37.750Z,14.80
2018-09-22T05:42:06.308Z,14.90
2018-09-22T05:44:34.847Z,14.90
2018-09-22T05:47:03.410Z,14.90
2018-09-22T05:49:32.699Z,15.00
2018-09-22T05:52:01.263Z,15.10
2018-09-22T05:54:29.831Z,15.10
2018-09-22T05:56:58.422Z,15.20
2018-09-22T05:59:28.181Z,15.30
2018-09-22T06:01:56.820Z,15.30
2018-09-22T06:04:25.523Z,15.40
2018-09-22T06:06:54.131Z,15.40
2018-09-22T06:09:23.731Z,15.50
2018-09-22T06:11:52.338Z,15.50
2018-09-22T06:14:21.433Z,15.60
2018-09-22T06:16:49.995Z,15.60
2018-09-22T06:19:18.501Z,15.60
2018-09-22T06:21:47.619Z,15.70
2018-09-22T06:24:16.142Z,15.70
2018-09-22T06:26:44.699Z,15.80
2018-09-22T06:29:13.242Z,15.80
2018-09-22T06:31:42.843Z,15.90
2018-09-22T06:34:11.572Z,15.90
2018-09-22T06:36:40.145Z,15.90
2018-09-22T06:39:10.286Z,16.00
2018-09-22T06:41:39.040Z,16.10
2018-09-22T06:44:08.793Z,16.10
2018-09-22T06:46:37.340Z,16.10
2018-09-22T06:49:06.705Z,16.20
2018-09-22T06:51:35.280Z,16.20
2018-09-22T06:54:03.860Z,16.20
2018-09-22T06:56:32.442Z,16.30
2018-09-22T06:59:01.547Z,16.30
2018-09-22T07:01:30.087Z,16.30
2018-09-22T07:04:01.137Z,16.40
2018-09-22T07:06:30.754Z,16.40
2018-09-22T07:09:00.009Z,16.50
2018-09-22T07:11:28.854Z,16.60
2018-09-22T07:13:57.711Z,16.60
2018-09-22T07:16:26.344Z,16.70
2018-09-22T07:18:55.685Z,16.70
2018-09-22T07:21:29.734Z,16.80
2018-09-22T07:23:58.360Z,16.80
2018-09-22T07:26:26.915Z,16.90
2018-09-22T07:28:55.487Z,17.00
2018-09-22T07:31:24.031Z,17.00
2018-09-22T07:33:52.639Z,17.00
2018-09-22T07:36:21.246Z,17.10
2018-09-22T07:38:49.930Z,17.20
2018-09-22T07:41:18.554Z,17.30
2018-09-22T07:43:47.172Z,17.30
2018-09-22T07:46:15.734Z,17.40
2018-09-22T07:48:44.276Z,17.40
2018-09-22T07:51:12.844Z,17.50
2018-09-22T07:53:41.396Z,17.60
2018-09-22T07:56:10.097Z,17.60
2018-09-22T07:58:38.730Z,17.70
2018-09-22T08:01:07.355Z,17.80
2018-09-22T08:03:36.103Z,17.90
2018-09-22T08:06:04.691Z,17.90
2018-09-22T08:08:33.253Z,18.00
2018-09-22T08:11:02.174Z,18.10
2018-09-22T08:13:30.716Z,18.20
2018-09-22T08:15:59.320Z,18.20
2018-09-22T08:18:28.476Z,18.30
2018-09-22T08:20:57.037Z,18.30
2018-09-22T08:23:25.723Z,18.40
2018-09-22T08:25:54.695Z,18.50
2018-09-22T08:28:24.993Z,18.60
2018-09-22T08:30:53.851Z,18.70
2018-09-22T08:33:22.708Z,18.80
2018-09-22T08:35:51.326Z,18.90
2018-09-22T08:38:20.154Z,18.90
2018-09-22T08:40:48.982Z,19.00
2018-09-22T08:43:17.674Z,19.00
2018-09-22T08:45:46.517Z,19.00
2018-09-22T08:48:16.064Z,19.10
2018-09-22T08:50:46.559Z,19.30
2018-09-22T08:53:15.220Z,19.30
2018-09-22T08:55:44.237Z,19.40
2018-09-22T08:58:12.822Z,19.50
2018-09-22T09:00:41.338Z,19.50
2018-09-22T09:03:10.039Z,19.50
2018-09-22T09:05:38.558Z,19.60
2018-09-22T09:08:07.742Z,19.70
2018-09-22T09:10:36.261Z,19.70
2018-09-22T09:13:04.885Z,19.70
2018-09-22T09:15:33.603Z,19.70
2018-09-22T09:18:02.965Z,19.80
2018-09-22T09:20:31.584Z,19.80
2018-09-22T09:23:00.189Z,19.80
2018-09-22T09:25:28.717Z,19.70
2018-09-22T09:27:57.255Z,19.80
2018-09-22T09:30:26.495Z,19.80
2018-09-22T09:32:56.222Z,19.60
2018-09-22T09:35:25.728Z,19.70
2018-09-22T09:37:54.298Z,19.80
2018-09-22T09:40:22.847Z,19.70
2018-09-22T09:42:51.434Z,19.40
2018-09-22T09:45:19.940Z,19.50
2018-09-22T09:47:48.492Z,19.30
2018-09-22T09:50:17.273Z,19.20
2018-09-22T09:52:45.861Z,19.10
2018-09-22T09:55:14.363Z,19.10
2018-09-22T09:57:42.951Z,19.00
2018-09-22T10:00:11.546Z,19.10
2018-09-22T10:02:40.386Z,19.00
2018-09-22T10:05:09.700Z,19.30
2018-09-22T10:07:40.413Z,19.40
2018-09-22T10:10:08.621Z,19.40
2018-09-22T10:12:37.983Z,19.50
2018-09-22T10:15:06.617Z,19.60
2018-09-22T10:17:35.637Z,19.70
2018-09-22T10:20:04.320Z,19.70
2018-09-22T10:22:33.038Z,19.60
2018-09-22T10:25:01.577Z,19.80
2018-09-22T10:27:30.178Z,19.70
2018-09-22T10:29:58.719Z,20.00
2018-09-22T10:32:27.263Z,19.80
2018-09-22T10:34:55.877Z,19.70
2018-09-22T10:37:24.407Z,19.70
2018-09-22T10:39:52.962Z,19.80
2018-09-22T10:42:21.500Z,19.60
2018-09-22T10:44:50.074Z,19.60
2018-09-22T10:47:18.627Z,19.50
2018-09-22T10:49:47.262Z,19.40
2018-09-22T10:52:15.803Z,19.50
2018-09-22T10:54:44.696Z,19.60
2018-09-22T10:57:13.264Z,19.80
2018-09-22T10:59:41.846Z,19.80
2018-09-22T11:02:11.939Z,19.80
2018-09-22T11:04:40.546Z,19.70
2018-09-22T11:07:09.442Z,19.60
2018-09-22T11:09:38.319Z,19.60
2018-09-22T11:12:07.037Z,19.50
2018-09-22T11:14:35.703Z,19.50
2018-09-22T11:17:04.438Z,19.60
2018-09-22T11:19:33.016Z,19.60
2018-09-22T11:22:01.583Z,19.50
2018-09-22T11:24:30.180Z,19.50
2018-09-22T11:26:59.331Z,19.40
2018-09-22T11:29:28.187Z,19.70
2018-09-22T11:31:56.790Z,19.70
2018-09-22T11:34:25.338Z,19.70
2018-09-22T11:36:54.030Z,19.70
2018-09-22T11:39:22.717Z,19.70
2018-09-22T11:41:51.661Z,19.70
2018-09-22T11:44:20.208Z,19.70
2018-09-22T11:46:49.489Z,19.70
2018-09-22T11:49:18.003Z,19.70
2018-09-22T11:51:47.058Z,19.80
2018-09-22T11:54:15.655Z,19.90
2018-09-22T11:56:44.317Z,20.00
2018-09-22T11:59:13.409Z,20.10
2018-09-22T12:01:44.343Z,20.00
2018-09-22T12:04:12.914Z,20.10
2018-09-22T12:06:41.619Z,20.10
2018-09-22T12:09:11.539Z,20.10
2018-09-22T12:11:40.813Z,20.00
2018-09-22T12:14:09.790Z,19.90
2018-09-22T12:16:40.311Z,19.90
2018-09-22T12:19:08.916Z,20.10
2018-09-22T12:21:37.648Z,20.00
2018-09-22T12:24:07.023Z,20.00
2018-09-22T12:26:36.208Z,20.00
2018-09-22T12:29:04.823Z,20.10
2018-09-22T12:31:33.462Z,20.10
2018-09-22T12:34:02.076Z,20.10
2018-09-22T12:36:30.781Z,19.90
2018-09-22T12:39:00.139Z,20.00
2018-09-22T12:41:28.749Z,19.90
2018-09-22T12:43:57.483Z,19.80
2018-09-22T12:46:26.050Z,19.80
2018-09-22T12:48:56.320Z,19.80
2018-09-22T12:51:24.880Z,19.70
2018-09-22T12:53:54.366Z,19.70
2018-09-22T12:56:23.183Z,19.70
2018-09-22T12:58:51.920Z,19.70
2018-09-22T13:01:20.794Z,19.60
2018-09-22T13:03:49.426Z,19.60
2018-09-22T13:06:18.075Z,19.60
2018-09-22T13:08:46.992Z,19.70
2018-09-22T13:11:15.739Z,19.70
2018-09-22T13:13:44.650Z,19.90
2018-09-22T13:16:13.168Z,19.90
2018-09-22T13:18:41.868Z,19.90
2018-09-22T13:21:10.477Z,20.00
2018-09-22T13:23:39.170Z,20.00
2018-09-22T13:26:07.774Z,20.00
2018-09-22T13:28:36.382Z,20.00
2018-09-22T13:31:05.048Z,20.00
2018-09-22T13:33:33.718Z,20.10
2018-09-22T13:36:02.925Z,20.10
2018-09-22T13:38:31.471Z,20.10
2018-09-22T13:41:00.076Z,20.10
2018-09-22T13:43:28.867Z,20.00
2018-09-22T13:45:57.966Z,20.00
2018-09-22T13:48:26.525Z,20.00
2018-09-22T13:50:55.327Z,20.00
2018-09-22T13:53:23.886Z,20.00
2018-09-22T13:55:52.467Z,20.00
2018-09-22T13:58:21.883Z,20.00
2018-09-22T14:00:50.751Z,20.00
2018-09-22T14:03:19.524Z,19.90
2018-09-22T14:05:48.167Z,19.90
2018-09-22T14:08:16.931Z,19.80
2018-09-22T14:10:45.766Z,19.80
2018-09-22T14:13:14.321Z,19.80
2018-09-22T14:15:43.421Z,19.80
2018-09-22T14:18:12.056Z,19.80
2018-09-22T14:20:40.622Z,19.80
2018-09-22T14:23:09.206Z,19.70
2018-09-22T14:25:37.801Z,19.70
2018-09-22T14:28:06.499Z,19.60
2018-09-22T14:30:35.633Z,19.50
2018-09-22T14:33:04.806Z,19.50
2018-09-22T14:35:33.466Z,19.40
2018-09-22T14:38:02.078Z,19.40
2018-09-22T14:40:30.802Z,19.40
2018-09-22T14:42:59.513Z,19.30
2018-09-22T14:45:28.087Z,19.20
2018-09-22T14:47:56.663Z,19.20
2018-09-22T14:50:25.316Z,19.20
2018-09-22T14:52:54.155Z,19.10
2018-09-22T14:55:22.814Z,19.10
2018-09-22T14:57:52.124Z,19.10
2018-09-22T15:00:21.754Z,19.10
2018-09-22T15:02:50.612Z,19.00
2018-09-22T15:05:19.674Z,19.00
2018-09-22T15:07:49.203Z,19.00
2018-09-22T15:10:17.780Z,19.00
2018-09-22T15:12:46.396Z,18.90
2018-09-22T15:15:15.049Z,18.90
2018-09-22T15:17:43.611Z,18.90
2018-09-22T15:20:12.605Z,18.90
2018-09-22T15:22:41.174Z,18.90
2018-09-22T15:25:09.784Z,18.90
2018-09-22T15:27:38.348Z,18.90
2018-09-22T15:30:07.027Z,18.90
2018-09-22T15:32:35.581Z,18.90
2018-09-22T15:35:04.221Z,18.90
2018-09-22T15:37:32.782Z,18.90
2018-09-22T15:40:02.170Z,18.80
2018-09-22T15:42:30.838Z,18.90
2018-09-22T15:44:59.443Z,18.80
2018-09-22T15:47:28.047Z,18.80
2018-09-22T15:49:56.717Z,18.80
2018-09-22T15:52:25.447Z,18.80
2018-09-22T15:54:54.095Z,18.70
2018-09-22T15:57:23.594Z,18.70
2018-09-22T15:59:53.179Z,18.60
2018-09-22T16:02:21.736Z,18.50
2018-09-22T16:04:51.471Z,18.50
2018-09-22T16:07:20.771Z,18.50
2018-09-22T16:09:49.854Z,18.40
2018-09-22T16:12:19.135Z,18.40
2018-09-22T16:14:49.302Z,18.30
2018-09-22T16:17:18.152Z,18.20
2018-09-22T16:19:47.001Z,18.20
2018-09-22T16:22:15.590Z,18.10
2018-09-22T16:24:44.160Z,18.10
2018-09-22T16:27:13.239Z,18.00
2018-09-22T16:29:42.479Z,18.00
2018-09-22T16:32:11.261Z,18.00
2018-09-22T16:34:39.991Z,17.90
2018-09-22T16:37:08.561Z,17.90
2018-09-22T16:39:37.893Z,17.80
2018-09-22T16:42:06.590Z,17.80
2018-09-22T16:44:36.251Z,17.70
2018-09-22T16:47:05.393Z,17.70
2018-09-22T16:49:33.982Z,17.60
2018-09-22T16:52:03.336Z,17.60
2018-09-22T16:54:31.915Z,17.50
2018-09-22T16:57:00.496Z,17.50
2018-09-22T16:59:29.283Z,17.40
2018-09-22T17:01:58.059Z,17.40
2018-09-22T17:04:26.602Z,17.30
2018-09-22T17:06:55.467Z,17.20
2018-09-22T17:09:24.899Z,17.20
2018-09-22T17:11:53.475Z,17.10
2018-09-22T17:14:22.921Z,17.10
2018-09-22T17:16:51.602Z,17.00
2018-09-22T17:19:20.952Z,17.00
2018-09-22T17:21:49.546Z,17.00
2018-09-22T17:24:18.120Z,17.00
2018-09-22T17:26:47.000Z,16.90
2018-09-22T17:29:15.672Z,16.90
2018-09-22T17:31:44.191Z,16.90
2018-09-22T17:34:12.777Z,16.80
2018-09-22T17:36:41.303Z,16.80
2018-09-22T17:39:10.647Z,16.80
2018-09-22T17:41:39.213Z,16.80
2018-09-22T17:44:07.819Z,16.80
2018-09-22T17:46:36.678Z,16.70
2018-09-22T17:49:05.437Z,16.70
2018-09-22T17:51:34.651Z,16.70
2018-09-22T17:54:03.279Z,16.70
2018-09-22T17:56:32.582Z,16.70
2018-09-22T17:59:01.203Z,16.70
2018-09-22T18:01:30.324Z,16.60
2018-09-22T18:03:59.269Z,16.60
2018-09-22T18:06:27.898Z,16.50
2018-09-22T18:08:57.179Z,16.50
2018-09-22T18:11:26.211Z,16.50
2018-09-22T18:13:54.823Z,16.40
2018-09-22T18:16:23.347Z,16.40
2018-09-22T18:18:51.968Z,16.30
2018-09-22T18:21:21.188Z,16.30
2018-09-22T18:23:49.903Z,16.30
2018-09-22T18:26:18.465Z,16.30
2018-09-22T18:28:47.006Z,16.30
2018-09-22T18:31:15.586Z,16.30
2018-09-22T18:33:44.122Z,16.30
2018-09-22T18:36:12.855Z,16.30
2018-09-22T18:38:41.349Z,16.30
2018-09-22T18:41:09.975Z,16.30
2018-09-22T18:43:39.005Z,16.30
2018-09-22T18:46:07.988Z,16.40
2018-09-22T18:48:36.501Z,16.40
2018-09-22T18:51:05.092Z,16.40
2018-09-22T18:53:33.723Z,16.50
2018-09-22T18:56:02.275Z,16.50
2018-09-22T18:58:30.858Z,16.50
2018-09-22T19:00:59.623Z,16.50
2018-09-22T19:03:28.199Z,16.40
2018-09-22T19:05:56.813Z,16.40
2018-09-22T19:08:27.031Z,16.40
2018-09-22T19:10:55.563Z,16.40
2018-09-22T19:13:30.298Z,16.40
2018-09-22T19:16:03.676Z,16.30
2018-09-22T19:18:40.786Z,16.30
2018-09-22T19:21:15.351Z,16.30
2018-09-22T19:23:48.404Z,16.30
2018-09-22T19:26:21.961Z,16.30
2018-09-22T19:28:55.621Z,16.30
2018-09-22T19:31:28.950Z,16.30
2018-09-22T19:34:00.888Z,16.30
2018-09-22T19:36:48.708Z,16.30
2018-09-22T19:39:21.592Z,16.30
2018-09-22T19:41:56.664Z,16.30
2018-09-22T19:44:30.626Z,16.30
2018-09-22T19:47:07.937Z,16.30
2018-09-22T19:49:55.107Z,16.30
2018-09-22T19:52:34.089Z,16.30
2018-09-22T19:55:02.965Z,16.30
2018-09-22T19:57:31.541Z,16.30
2018-09-22T20:00:00.890Z,16.30
2018-09-22T20:02:29.484Z,16.30
2018-09-22T20:04:58.121Z,16.30
2018-09-22T20:07:28.387Z,16.40
2018-09-22T20:09:57.337Z,16.40
2018-09-22T20:12:26.180Z,16.40
2018-09-22T20:14:54.905Z,16.50
2018-09-22T20:17:23.521Z,16.50
2018-09-22T20:19:52.275Z,16.50
2018-09-22T20:22:21.018Z,16.50
2018-09-22T20:24:49.671Z,16.50
2018-09-22T20:27:18.268Z,16.50
2018-09-22T20:29:47.043Z,16.50
2018-09-22T20:32:15.628Z,16.50
2018-09-22T20:34:44.473Z,16.50
2018-09-22T20:37:13.083Z,16.50
2018-09-22T20:39:41.732Z,16.50
2018-09-22T20:42:10.336Z,16.50
2018-09-22T20:44:39.017Z,16.50
2018-09-22T20:47:07.733Z,16.50
2018-09-22T20:49:36.553Z,16.50
2018-09-22T20:52:05.717Z,16.50
2018-09-22T20:54:34.247Z,16.50
2018-09-22T20:57:02.913Z,16.50
2018-09-22T20:59:31.416Z,16.50
2018-09-22T21:01:59.964Z,16.50
2018-09-22T21:04:29.229Z,16.50
2018-09-22T21:06:57.776Z,16.50
2018-09-22T21:09:26.322Z,16.50
2018-09-22T21:11:54.861Z,16.50
2018-09-22T21:14:23.484Z,16.50
2018-09-22T21:16:52.101Z,16.50
2018-09-22T21:19:21.339Z,16.50
2018-09-22T21:21:49.831Z,16.50
2018-09-22T21:24:18.453Z,16.50
2018-09-22T21:26:47.076Z,16.50
2018-09-22T21:29:15.620Z,16.50
2018-09-22T21:31:44.249Z,16.40
2018-09-22T21:34:12.775Z,16.40
2018-09-22T21:36:41.368Z,16.50
2018-09-22T21:39:10.753Z,16.50
2018-09-22T21:41:39.491Z,16.50
2018-09-22T21:44:08.318Z,16.50
2018-09-22T21:46:36.829Z,16.50
2018-09-22T21:49:05.694Z,16.50
2018-09-22T21:51:34.196Z,16.50
2018-09-22T21:54:03.581Z,16.50
2018-09-22T21:56:32.172Z,16.50
2018-09-22T21:59:00.926Z,16.50
2018-09-22T22:01:34.782Z,16.50
2018-09-22T22:04:03.349Z,16.50
2018-09-22T22:06:34.286Z,16.50
2018-09-22T22:09:02.991Z,16.50
2018-09-22T22:11:31.764Z,16.50
2018-09-22T22:14:00.447Z,16.50
2018-09-22T22:16:29.190Z,16.50
2018-09-22T22:18:57.742Z,16.40
2018-09-22T22:21:26.395Z,16.40
2018-09-22T22:23:55.261Z,16.40
2018-09-22T22:26:23.983Z,16.40
2018-09-22T22:28:53.249Z,16.40
2018-09-22T22:31:21.815Z,16.40
2018-09-22T22:33:51.463Z,16.40
2018-09-22T22:36:21.187Z,16.30
2018-09-22T22:38:50.822Z,16.40
2018-09-22T22:41:19.801Z,16.30
2018-09-22T22:43:48.310Z,16.30
2018-09-22T22:46:16.863Z,16.20
2018-09-22T22:48:45.374Z,16.20
2018-09-22T22:51:13.998Z,16.20
2018-09-22T22:53:42.686Z,16.20
2018-09-22T22:56:11.246Z,16.10
2018-09-22T22:58:39.742Z,15.90
2018-09-22T23:01:08.915Z,15.80
2018-09-22T23:03:37.417Z,15.70
2018-09-22T23:06:06.118Z,15.60
2018-09-22T23:08:35.120Z,15.50
2018-09-22T23:11:03.859Z,15.50
2018-09-22T23:13:32.396Z,15.40
2018-09-22T23:16:01.064Z,15.40
2018-09-22T23:18:30.669Z,15.30
2018-09-22T23:20:59.421Z,15.30
2018-09-22T23:23:28.069Z,15.30
2018-09-22T23:25:56.787Z,15.30
2018-09-22T23:28:25.319Z,15.30
2018-09-22T23:30:54.354Z,15.30
2018-09-22T23:33:22.929Z,15.30
2018-09-22T23:35:51.465Z,15.20
2018-09-22T23:38:20.015Z,15.20
2018-09-22T23:40:48.554Z,15.20
2018-09-22T23:43:17.139Z,15.20
2018-09-22T23:45:47.121Z,15.20
2018-09-22T23:48:15.797Z,15.20
2018-09-22T23:50:44.360Z,15.20
2018-09-22T23:53:13.531Z,15.20
2018-09-22T23:55:42.061Z,15.20
2018-09-22T23:58:10.555Z,15.20
